sensor_id;sensor_type;location;lat;lon;timestamp;P1;durP1;ratioP1;P2;durP2;ratioP2
53309;SDS011;39197;53.200;5.792;2023-04-02T00:09:00;14.90;;;3.53;;
53309;SDS011;39197;53.200;5.792;2023-04-02T00:11:39;7.10;;;3.00;;
53309;SDS011;39197;53.200;5.792;2023-04-02T00:14:17;10.52;;;4.22;;
53309;SDS011;39197;53.200;5.792;2023-04-02T00:16:45;8.18;;;2.80;;
53309;SDS011;39197;53.200;5.792;2023-04-02T00:19:29;11.20;;;3.47;;
53309;SDS011;39197;53.200;5.792;2023-04-02T00:22:00;9.35;;;3.15;;
53309;SDS011;39197;53.200;5.792;2023-04-02T00:24:27;6.35;;;2.17;;
53309;SDS011;39197;53.200;5.792;2023-04-02T00:26:53;9.07;;;3.42;;
53309;SDS011;39197;53.200;5.792;2023-04-02T00:29:20;9.55;;;2.80;;
53309;SDS011;39197;53.200;5.792;2023-04-02T00:31:47;9.35;;;2.60;;
53309;SDS011;39197;53.200;5.792;2023-04-02T00:34:35;9.82;;;3.65;;
53309;SDS011;39197;53.200;5.792;2023-04-02T00:37:02;6.43;;;2.40;;
53309;SDS011;39197;53.200;5.792;2023-04-02T00:39:28;9.07;;;3.67;;
53309;SDS011;39197;53.200;5.792;2023-04-02T00:41:58;12.10;;;4.72;;
53309;SDS011;39197;53.200;5.792;2023-04-02T00:47:10;10.93;;;3.78;;
53309;SDS011;39197;53.200;5.792;2023-04-02T00:49:48;14.32;;;5.13;;
53309;SDS011;39197;53.200;5.792;2023-04-02T00:52:19;11.20;;;3.65;;
53309;SDS011;39197;53.200;5.792;2023-04-02T00:55:07;5.63;;;2.13;;
53309;SDS011;39197;53.200;5.792;2023-04-02T00:57:43;8.45;;;2.53;;
53309;SDS011;39197;53.200;5.792;2023-04-02T01:00:17;5.47;;;2.28;;
53309;SDS011;39197;53.200;5.792;2023-04-02T01:05:45;6.85;;;3.05;;
53309;SDS011;39197;53.200;5.792;2023-04-02T01:13:57;6.60;;;2.40;;
53309;SDS011;39197;53.200;5.792;2023-04-02T01:19:11;6.95;;;2.67;;
53309;SDS011;39197;53.200;5.792;2023-04-02T01:24:42;8.90;;;3.08;;
53309;SDS011;39197;53.200;5.792;2023-04-02T01:27:14;6.85;;;3.65;;
53309;SDS011;39197;53.200;5.792;2023-04-02T01:29:41;6.15;;;2.00;;
53309;SDS011;39197;53.200;5.792;2023-04-02T01:32:13;8.05;;;2.03;;
53309;SDS011;39197;53.200;5.792;2023-04-02T01:34:41;14.65;;;4.80;;
53309;SDS011;39197;53.200;5.792;2023-04-02T01:45:48;6.35;;;1.75;;
53309;SDS011;39197;53.200;5.792;2023-04-02T01:48:16;4.47;;;1.88;;
53309;SDS011;39197;53.200;5.792;2023-04-02T01:50:44;6.95;;;2.13;;
53309;SDS011;39197;53.200;5.792;2023-04-02T01:53:12;5.82;;;1.65;;
53309;SDS011;39197;53.200;5.792;2023-04-02T01:58:08;9.68;;;2.60;;
53309;SDS011;39197;53.200;5.792;2023-04-02T02:00:35;5.88;;;2.35;;
53309;SDS011;39197;53.200;5.792;2023-04-02T02:03:09;8.65;;;2.45;;
53309;SDS011;39197;53.200;5.792;2023-04-02T02:05:36;10.40;;;2.35;;
53309;SDS011;39197;53.200;5.792;2023-04-02T02:08:02;10.38;;;4.47;;
53309;SDS011;39197;53.200;5.792;2023-04-02T02:10:34;9.40;;;2.78;;
53309;SDS011;39197;53.200;5.792;2023-04-02T02:13:01;6.13;;;1.58;;
53309;SDS011;39197;53.200;5.792;2023-04-02T02:15:29;5.38;;;1.02;;
53309;SDS011;39197;53.200;5.792;2023-04-02T02:17:58;6.55;;;1.35;;
53309;SDS011;39197;53.200;5.792;2023-04-02T02:20:27;6.85;;;2.67;;
53309;SDS011;39197;53.200;5.792;2023-04-02T02:22:53;5.82;;;2.33;;
53309;SDS011;39197;53.200;5.792;2023-04-02T02:25:21;7.30;;;2.45;;
53309;SDS011;39197;53.200;5.792;2023-04-02T02:31:16;4.15;;;1.33;;
53309;SDS011;39197;53.200;5.792;2023-04-02T02:33:40;10.50;;;2.05;;
53309;SDS011;39197;53.200;5.792;2023-04-02T02:36:14;6.20;;;1.95;;
53309;SDS011;39197;53.200;5.792;2023-04-02T02:38:49;10.30;;;1.50;;
53309;SDS011;39197;53.200;5.792;2023-04-02T02:41:17;8.63;;;1.52;;
53309;SDS011;39197;53.200;5.792;2023-04-02T02:46:34;5.60;;;1.42;;
53309;SDS011;39197;53.200;5.792;2023-04-02T02:49:03;5.43;;;1.70;;
53309;SDS011;39197;53.200;5.792;2023-04-02T02:54:16;2.00;;;0.70;;
53309;SDS011;39197;53.200;5.792;2023-04-02T02:56:45;5.60;;;0.98;;
53309;SDS011;39197;53.200;5.792;2023-04-02T02:59:16;7.80;;;1.02;;
53309;SDS011;39197;53.200;5.792;2023-04-02T03:01:44;5.55;;;1.67;;
53309;SDS011;39197;53.200;5.792;2023-04-02T03:04:11;4.47;;;0.93;;
53309;SDS011;39197;53.200;5.792;2023-04-02T03:06:38;5.32;;;1.10;;
53309;SDS011;39197;53.200;5.792;2023-04-02T03:09:13;5.75;;;0.98;;
53309;SDS011;39197;53.200;5.792;2023-04-02T03:11:51;7.20;;;1.85;;
53309;SDS011;39197;53.200;5.792;2023-04-02T03:14:31;6.47;;;0.90;;
53309;SDS011;39197;53.200;5.792;2023-04-02T03:17:11;3.42;;;0.80;;
53309;SDS011;39197;53.200;5.792;2023-04-02T03:19:46;9.20;;;1.02;;
53309;SDS011;39197;53.200;5.792;2023-04-02T03:22:22;7.80;;;1.50;;
53309;SDS011;39197;53.200;5.792;2023-04-02T03:25:38;7.72;;;1.20;;
53309;SDS011;39197;53.200;5.792;2023-04-02T03:27:45;4.70;;;0.85;;
53309;SDS011;39197;53.200;5.792;2023-04-02T03:30:34;4.57;;;0.80;;
53309;SDS011;39197;53.200;5.792;2023-04-02T03:33:10;7.13;;;2.50;;
53309;SDS011;39197;53.200;5.792;2023-04-02T03:35:57;8.13;;;1.10;;
53309;SDS011;39197;53.200;5.792;2023-04-02T03:38:30;8.25;;;0.95;;
53309;SDS011;39197;53.200;5.792;2023-04-02T03:43:33;4.75;;;1.00;;
53309;SDS011;39197;53.200;5.792;2023-04-02T03:46:10;4.50;;;0.90;;
53309;SDS011;39197;53.200;5.792;2023-04-02T03:48:39;4.72;;;1.00;;
53309;SDS011;39197;53.200;5.792;2023-04-02T03:53:48;5.35;;;0.90;;
53309;SDS011;39197;53.200;5.792;2023-04-02T03:56:35;4.90;;;0.93;;
53309;SDS011;39197;53.200;5.792;2023-04-02T03:59:26;3.67;;;0.80;;
53309;SDS011;39197;53.200;5.792;2023-04-02T04:04:40;4.53;;;0.50;;
53309;SDS011;39197;53.200;5.792;2023-04-02T04:07:15;1.75;;;0.45;;
53309;SDS011;39197;53.200;5.792;2023-04-02T04:09:46;6.80;;;0.90;;
53309;SDS011;39197;53.200;5.792;2023-04-02T04:12:29;5.80;;;1.80;;
53309;SDS011;39197;53.200;5.792;2023-04-02T04:25:32;6.18;;;0.95;;
53309;SDS011;39197;53.200;5.792;2023-04-02T04:28:01;5.13;;;0.98;;
53309;SDS011;39197;53.200;5.792;2023-04-02T04:33:28;4.22;;;0.93;;
53309;SDS011;39197;53.200;5.792;2023-04-02T04:36:04;6.45;;;1.20;;
53309;SDS011;39197;53.200;5.792;2023-04-02T04:38:44;8.63;;;0.85;;
53309;SDS011;39197;53.200;5.792;2023-04-02T04:41:22;3.53;;;0.70;;
53309;SDS011;39197;53.200;5.792;2023-04-02T04:43:58;5.57;;;1.00;;
53309;SDS011;39197;53.200;5.792;2023-04-02T04:46:37;4.60;;;0.82;;
53309;SDS011;39197;53.200;5.792;2023-04-02T04:49:24;4.18;;;0.70;;
53309;SDS011;39197;53.200;5.792;2023-04-02T04:52:20;7.72;;;0.57;;
53309;SDS011;39197;53.200;5.792;2023-04-02T04:54:49;7.05;;;0.70;;
53309;SDS011;39197;53.200;5.792;2023-04-02T04:57:29;4.43;;;0.80;;
53309;SDS011;39197;53.200;5.792;2023-04-02T05:02:44;5.53;;;1.25;;
53309;SDS011;39197;53.200;5.792;2023-04-02T05:05:26;5.57;;;0.60;;
53309;SDS011;39197;53.200;5.792;2023-04-02T05:07:57;5.50;;;0.70;;
53309;SDS011;39197;53.200;5.792;2023-04-02T05:10:48;4.80;;;0.60;;
53309;SDS011;39197;53.200;5.792;2023-04-02T05:13:36;10.45;;;0.90;;
53309;SDS011;39197;53.200;5.792;2023-04-02T05:16:22;2.92;;;0.70;;
53309;SDS011;39197;53.200;5.792;2023-04-02T05:19:01;6.05;;;0.80;;
53309;SDS011;39197;53.200;5.792;2023-04-02T05:24:32;5.32;;;0.80;;
53309;SDS011;39197;53.200;5.792;2023-04-02T05:27:08;7.60;;;0.80;;
53309;SDS011;39197;53.200;5.792;2023-04-02T05:29:44;3.97;;;0.60;;
53309;SDS011;39197;53.200;5.792;2023-04-02T05:32:16;3.97;;;0.70;;
53309;SDS011;39197;53.200;5.792;2023-04-02T05:34:48;3.85;;;0.45;;
53309;SDS011;39197;53.200;5.792;2023-04-02T05:37:19;3.88;;;0.50;;
53309;SDS011;39197;53.200;5.792;2023-04-02T05:39:51;5.30;;;0.52;;
53309;SDS011;39197;53.200;5.792;2023-04-02T05:42:23;6.63;;;0.65;;
53309;SDS011;39197;53.200;5.792;2023-04-02T05:47:33;7.97;;;0.88;;
53309;SDS011;39197;53.200;5.792;2023-04-02T05:52:40;8.43;;;0.63;;
53309;SDS011;39197;53.200;5.792;2023-04-02T05:57:43;8.55;;;1.30;;
53309;SDS011;39197;53.200;5.792;2023-04-02T06:00:18;4.57;;;0.47;;
53309;SDS011;39197;53.200;5.792;2023-04-02T06:02:54;5.47;;;0.80;;
53309;SDS011;39197;53.200;5.792;2023-04-02T06:05:28;6.00;;;1.40;;
53309;SDS011;39197;53.200;5.792;2023-04-02T06:08:01;3.30;;;1.10;;
53309;SDS011;39197;53.200;5.792;2023-04-02T06:10:36;5.60;;;0.57;;
53309;SDS011;39197;53.200;5.792;2023-04-02T06:13:25;5.63;;;0.40;;
53309;SDS011;39197;53.200;5.792;2023-04-02T06:15:52;4.10;;;1.10;;
53309;SDS011;39197;53.200;5.792;2023-04-02T06:18:19;4.53;;;0.57;;
53309;SDS011;39197;53.200;5.792;2023-04-02T06:20:48;2.90;;;0.70;;
53309;SDS011;39197;53.200;5.792;2023-04-02T06:23:15;6.13;;;1.02;;
53309;SDS011;39197;53.200;5.792;2023-04-02T06:25:56;6.00;;;0.80;;
53309;SDS011;39197;53.200;5.792;2023-04-02T06:28:25;5.57;;;0.50;;
53309;SDS011;39197;53.200;5.792;2023-04-02T06:30:58;4.35;;;0.50;;
53309;SDS011;39197;53.200;5.792;2023-04-02T06:33:31;4.43;;;0.60;;
53309;SDS011;39197;53.200;5.792;2023-04-02T06:35:57;4.00;;;0.57;;
53309;SDS011;39197;53.200;5.792;2023-04-02T06:38:25;3.47;;;0.57;;
53309;SDS011;39197;53.200;5.792;2023-04-02T06:40:56;4.82;;;0.30;;
53309;SDS011;39197;53.200;5.792;2023-04-02T06:43:30;4.13;;;0.40;;
53309;SDS011;39197;53.200;5.792;2023-04-02T06:46:08;4.22;;;0.70;;
53309;SDS011;39197;53.200;5.792;2023-04-02T06:48:41;3.63;;;0.45;;
53309;SDS011;39197;53.200;5.792;2023-04-02T06:51:12;5.28;;;0.70;;
53309;SDS011;39197;53.200;5.792;2023-04-02T06:53:47;6.80;;;0.55;;
53309;SDS011;39197;53.200;5.792;2023-04-02T06:56:23;3.25;;;0.85;;
53309;SDS011;39197;53.200;5.792;2023-04-02T06:59:13;2.75;;;0.60;;
53309;SDS011;39197;53.200;5.792;2023-04-02T07:01:42;6.50;;;0.63;;
53309;SDS011;39197;53.200;5.792;2023-04-02T07:04:14;2.00;;;0.40;;
53309;SDS011;39197;53.200;5.792;2023-04-02T07:06:41;2.28;;;0.43;;
53309;SDS011;39197;53.200;5.792;2023-04-02T07:09:07;5.90;;;0.60;;
53309;SDS011;39197;53.200;5.792;2023-04-02T07:11:33;4.05;;;0.55;;
53309;SDS011;39197;53.200;5.792;2023-04-02T07:13:59;3.42;;;0.52;;
53309;SDS011;39197;53.200;5.792;2023-04-02T07:16:25;3.05;;;0.60;;
53309;SDS011;39197;53.200;5.792;2023-04-02T07:18:53;8.23;;;0.68;;
53309;SDS011;39197;53.200;5.792;2023-04-02T07:21:20;3.45;;;0.30;;
53309;SDS011;39197;53.200;5.792;2023-04-02T07:23:46;3.45;;;0.50;;
53309;SDS011;39197;53.200;5.792;2023-04-02T07:26:12;3.83;;;0.55;;
53309;SDS011;39197;53.200;5.792;2023-04-02T07:28:39;4.07;;;0.60;;
53309;SDS011;39197;53.200;5.792;2023-04-02T07:31:13;5.20;;;1.17;;
53309;SDS011;39197;53.200;5.792;2023-04-02T07:33:43;4.30;;;0.40;;
53309;SDS011;39197;53.200;5.792;2023-04-02T07:36:14;2.92;;;0.40;;
53309;SDS011;39197;53.200;5.792;2023-04-02T07:38:41;6.00;;;0.57;;
53309;SDS011;39197;53.200;5.792;2023-04-02T07:41:07;3.88;;;0.60;;
53309;SDS011;39197;53.200;5.792;2023-04-02T07:43:33;4.00;;;0.45;;
53309;SDS011;39197;53.200;5.792;2023-04-02T07:46:00;6.53;;;0.60;;
53309;SDS011;39197;53.200;5.792;2023-04-02T07:48:26;4.70;;;0.52;;
53309;SDS011;39197;53.200;5.792;2023-04-02T07:50:52;3.10;;;0.90;;
53309;SDS011;39197;53.200;5.792;2023-04-02T07:53:24;4.72;;;0.55;;
53309;SDS011;39197;53.200;5.792;2023-04-02T07:55:57;3.05;;;0.38;;
53309;SDS011;39197;53.200;5.792;2023-04-02T07:58:24;3.53;;;0.63;;
53309;SDS011;39197;53.200;5.792;2023-04-02T08:00:50;3.90;;;0.55;;
53309;SDS011;39197;53.200;5.792;2023-04-02T08:03:15;1.70;;;0.50;;
53309;SDS011;39197;53.200;5.792;2023-04-02T08:05:41;8.05;;;0.50;;
53309;SDS011;39197;53.200;5.792;2023-04-02T08:08:07;1.63;;;0.38;;
53309;SDS011;39197;53.200;5.792;2023-04-02T08:10:32;4.18;;;0.50;;
53309;SDS011;39197;53.200;5.792;2023-04-02T08:12:58;4.35;;;0.50;;
53309;SDS011;39197;53.200;5.792;2023-04-02T08:15:23;2.45;;;0.52;;
53309;SDS011;39197;53.200;5.792;2023-04-02T08:17:49;2.70;;;0.32;;
53309;SDS011;39197;53.200;5.792;2023-04-02T08:20:16;3.80;;;0.45;;
53309;SDS011;39197;53.200;5.792;2023-04-02T08:22:44;3.47;;;0.60;;
53309;SDS011;39197;53.200;5.792;2023-04-02T08:25:10;3.78;;;0.50;;
53309;SDS011;39197;53.200;5.792;2023-04-02T08:27:36;2.67;;;0.60;;
53309;SDS011;39197;53.200;5.792;2023-04-02T08:30:03;8.98;;;1.00;;
53309;SDS011;39197;53.200;5.792;2023-04-02T08:32:30;5.63;;;0.98;;
53309;SDS011;39197;53.200;5.792;2023-04-02T08:34:55;4.20;;;1.00;;
53309;SDS011;39197;53.200;5.792;2023-04-02T08:37:21;6.50;;;0.80;;
53309;SDS011;39197;53.200;5.792;2023-04-02T08:39:47;3.40;;;0.60;;
53309;SDS011;39197;53.200;5.792;2023-04-02T08:47:42;4.57;;;1.20;;
53309;SDS011;39197;53.200;5.792;2023-04-02T08:50:18;3.10;;;0.40;;
53309;SDS011;39197;53.200;5.792;2023-04-02T08:52:48;3.13;;;0.52;;
53309;SDS011;39197;53.200;5.792;2023-04-02T08:55:56;5.30;;;0.80;;
53309;SDS011;39197;53.200;5.792;2023-04-02T08:59:08;3.08;;;0.52;;
53309;SDS011;39197;53.200;5.792;2023-04-02T09:04:12;2.40;;;0.50;;
53309;SDS011;39197;53.200;5.792;2023-04-02T09:06:40;4.57;;;1.15;;
53309;SDS011;39197;53.200;5.792;2023-04-02T09:09:07;3.00;;;0.60;;
53309;SDS011;39197;53.200;5.792;2023-04-02T09:11:40;2.55;;;0.50;;
53309;SDS011;39197;53.200;5.792;2023-04-02T09:14:20;3.30;;;0.47;;
53309;SDS011;39197;53.200;5.792;2023-04-02T09:16:54;2.55;;;0.57;;
53309;SDS011;39197;53.200;5.792;2023-04-02T09:19:30;4.68;;;0.63;;
53309;SDS011;39197;53.200;5.792;2023-04-02T09:24:33;2.60;;;0.40;;
53309;SDS011;39197;53.200;5.792;2023-04-02T09:26:59;3.55;;;0.50;;
53309;SDS011;39197;53.200;5.792;2023-04-02T09:33:11;4.47;;;0.88;;
53309;SDS011;39197;53.200;5.792;2023-04-02T09:35:18;4.53;;;0.70;;
53309;SDS011;39197;53.200;5.792;2023-04-02T09:37:46;1.95;;;0.50;;
53309;SDS011;39197;53.200;5.792;2023-04-02T09:42:44;2.00;;;0.45;;
53309;SDS011;39197;53.200;5.792;2023-04-02T09:45:18;3.65;;;0.40;;
53309;SDS011;39197;53.200;5.792;2023-04-02T09:47:44;4.30;;;1.27;;
53309;SDS011;39197;53.200;5.792;2023-04-02T09:52:46;3.28;;;0.88;;
53309;SDS011;39197;53.200;5.792;2023-04-02T09:57:46;3.28;;;0.80;;
53309;SDS011;39197;53.200;5.792;2023-04-02T10:02:38;3.95;;;1.48;;
53309;SDS011;39197;53.200;5.792;2023-04-02T10:05:05;3.63;;;0.70;;
53309;SDS011;39197;53.200;5.792;2023-04-02T10:07:44;5.57;;;0.77;;
53309;SDS011;39197;53.200;5.792;2023-04-02T10:12:54;3.33;;;0.32;;
53309;SDS011;39197;53.200;5.792;2023-04-02T10:15:29;3.53;;;0.40;;
53309;SDS011;39197;53.200;5.792;2023-04-02T10:20:52;5.07;;;0.82;;
53309;SDS011;39197;53.200;5.792;2023-04-02T10:23:20;2.90;;;0.43;;
53309;SDS011;39197;53.200;5.792;2023-04-02T10:26:06;3.00;;;0.55;;
53309;SDS011;39197;53.200;5.792;2023-04-02T10:31:30;5.05;;;0.65;;
53309;SDS011;39197;53.200;5.792;2023-04-02T10:34:05;6.45;;;1.42;;
53309;SDS011;39197;53.200;5.792;2023-04-02T10:49:51;1.90;;;0.40;;
53309;SDS011;39197;53.200;5.792;2023-04-02T10:54:55;4.30;;;0.70;;
53309;SDS011;39197;53.200;5.792;2023-04-02T10:57:37;7.20;;;3.38;;
53309;SDS011;39197;53.200;5.792;2023-04-02T11:02:46;6.10;;;2.92;;
53309;SDS011;39197;53.200;5.792;2023-04-02T11:11:05;3.88;;;1.33;;
53309;SDS011;39197;53.200;5.792;2023-04-02T11:16:16;4.47;;;0.80;;
53309;SDS011;39197;53.200;5.792;2023-04-02T11:18:42;2.70;;;0.50;;
53309;SDS011;39197;53.200;5.792;2023-04-02T11:39:59;3.25;;;0.85;;
53309;SDS011;39197;53.200;5.792;2023-04-02T11:42:48;3.55;;;0.60;;
53309;SDS011;39197;53.200;5.792;2023-04-02T11:50:33;3.70;;;1.23;;
53309;SDS011;39197;53.200;5.792;2023-04-02T11:55:35;3.80;;;0.77;;
53309;SDS011;39197;53.200;5.792;2023-04-02T12:00:54;4.75;;;1.90;;
53309;SDS011;39197;53.200;5.792;2023-04-02T12:03:46;4.63;;;1.33;;
53309;SDS011;39197;53.200;5.792;2023-04-02T12:06:26;2.58;;;0.80;;
53309;SDS011;39197;53.200;5.792;2023-04-02T12:12:27;2.72;;;0.60;;
53309;SDS011;39197;53.200;5.792;2023-04-02T12:14:58;4.38;;;0.70;;
53309;SDS011;39197;53.200;5.792;2023-04-02T12:17:43;2.55;;;0.47;;
53309;SDS011;39197;53.200;5.792;2023-04-02T12:22:35;4.80;;;1.17;;
53309;SDS011;39197;53.200;5.792;2023-04-02T12:25:50;3.25;;;0.60;;
53309;SDS011;39197;53.200;5.792;2023-04-02T12:28:12;4.28;;;0.70;;
53309;SDS011;39197;53.200;5.792;2023-04-02T12:30:44;6.22;;;1.45;;
53309;SDS011;39197;53.200;5.792;2023-04-02T12:36:02;6.45;;;2.25;;
53309;SDS011;39197;53.200;5.792;2023-04-02T12:38:32;2.38;;;0.63;;
53309;SDS011;39197;53.200;5.792;2023-04-02T12:41:05;4.35;;;1.73;;
53309;SDS011;39197;53.200;5.792;2023-04-02T12:43:57;5.30;;;1.25;;
53309;SDS011;39197;53.200;5.792;2023-04-02T12:46:24;2.67;;;0.90;;
53309;SDS011;39197;53.200;5.792;2023-04-02T12:48:52;5.90;;;1.08;;
53309;SDS011;39197;53.200;5.792;2023-04-02T12:51:18;4.53;;;0.90;;
53309;SDS011;39197;53.200;5.792;2023-04-02T12:53:48;4.93;;;0.93;;
53309;SDS011;39197;53.200;5.792;2023-04-02T12:56:19;6.17;;;1.77;;
53309;SDS011;39197;53.200;5.792;2023-04-02T13:01:57;4.75;;;0.73;;
53309;SDS011;39197;53.200;5.792;2023-04-02T13:04:24;4.00;;;0.45;;
53309;SDS011;39197;53.200;5.792;2023-04-02T13:06:51;2.80;;;0.80;;
53309;SDS011;39197;53.200;5.792;2023-04-02T13:09:27;3.15;;;0.95;;
53309;SDS011;39197;53.200;5.792;2023-04-02T13:12:05;5.03;;;1.80;;
53309;SDS011;39197;53.200;5.792;2023-04-02T13:14:50;5.60;;;1.58;;
53309;SDS011;39197;53.200;5.792;2023-04-02T13:18:00;5.65;;;1.30;;
53309;SDS011;39197;53.200;5.792;2023-04-02T13:23:23;5.93;;;2.85;;
53309;SDS011;39197;53.200;5.792;2023-04-02T13:26:01;4.75;;;1.05;;
53309;SDS011;39197;53.200;5.792;2023-04-02T13:28:37;3.33;;;0.90;;
53309;SDS011;39197;53.200;5.792;2023-04-02T13:31:03;2.40;;;1.02;;
53309;SDS011;39197;53.200;5.792;2023-04-02T13:33:29;6.97;;;4.07;;
53309;SDS011;39197;53.200;5.792;2023-04-02T13:35:55;5.60;;;1.08;;
53309;SDS011;39197;53.200;5.792;2023-04-02T13:38:20;2.15;;;0.60;;
53309;SDS011;39197;53.200;5.792;2023-04-02T13:40:46;4.70;;;1.63;;
53309;SDS011;39197;53.200;5.792;2023-04-02T13:43:16;2.67;;;0.65;;
53309;SDS011;39197;53.200;5.792;2023-04-02T13:45:45;4.15;;;1.08;;
53309;SDS011;39197;53.200;5.792;2023-04-02T13:48:15;4.80;;;0.80;;
53309;SDS011;39197;53.200;5.792;2023-04-02T13:50:42;5.40;;;2.47;;
53309;SDS011;39197;53.200;5.792;2023-04-02T13:53:12;4.80;;;2.10;;
53309;SDS011;39197;53.200;5.792;2023-04-02T13:55:45;3.33;;;2.33;;
53309;SDS011;39197;53.200;5.792;2023-04-02T13:58:11;5.38;;;1.50;;
53309;SDS011;39197;53.200;5.792;2023-04-02T14:00:37;6.32;;;1.05;;
53309;SDS011;39197;53.200;5.792;2023-04-02T14:03:07;4.38;;;1.38;;
53309;SDS011;39197;53.200;5.792;2023-04-02T14:13:56;6.20;;;1.13;;
53309;SDS011;39197;53.200;5.792;2023-04-02T14:16:31;4.22;;;0.85;;
53309;SDS011;39197;53.200;5.792;2023-04-02T14:19:26;4.65;;;1.95;;
53309;SDS011;39197;53.200;5.792;2023-04-02T14:36:02;3.92;;;1.08;;
53309;SDS011;39197;53.200;5.792;2023-04-02T14:38:45;4.47;;;0.60;;
53309;SDS011;39197;53.200;5.792;2023-04-02T14:41:27;3.15;;;0.52;;
53309;SDS011;39197;53.200;5.792;2023-04-02T14:44:08;4.07;;;1.05;;
53309;SDS011;39197;53.200;5.792;2023-04-02T14:46:36;3.95;;;1.95;;
53309;SDS011;39197;53.200;5.792;2023-04-02T14:51:44;4.53;;;1.13;;
53309;SDS011;39197;53.200;5.792;2023-04-02T14:54:21;2.17;;;0.70;;
53309;SDS011;39197;53.200;5.792;2023-04-02T14:57:02;6.35;;;2.00;;
53309;SDS011;39197;53.200;5.792;2023-04-02T14:59:38;4.15;;;1.73;;
53309;SDS011;39197;53.200;5.792;2023-04-02T15:02:45;4.07;;;2.13;;
53309;SDS011;39197;53.200;5.792;2023-04-02T15:13:58;4.10;;;1.95;;
53309;SDS011;39197;53.200;5.792;2023-04-02T15:16:32;5.85;;;2.90;;
53309;SDS011;39197;53.200;5.792;2023-04-02T15:19:00;7.68;;;2.33;;
53309;SDS011;39197;53.200;5.792;2023-04-02T15:27:25;7.47;;;1.65;;
53309;SDS011;39197;53.200;5.792;2023-04-02T15:39:00;3.42;;;1.98;;
53309;SDS011;39197;53.200;5.792;2023-04-02T15:44:07;2.42;;;0.77;;
53309;SDS011;39197;53.200;5.792;2023-04-02T15:49:36;3.55;;;1.10;;
53309;SDS011;39197;53.200;5.792;2023-04-02T15:52:24;4.28;;;1.42;;
53309;SDS011;39197;53.200;5.792;2023-04-02T15:57:38;5.35;;;1.05;;
53309;SDS011;39197;53.200;5.792;2023-04-02T16:11:10;8.52;;;2.13;;
53309;SDS011;39197;53.200;5.792;2023-04-02T16:13:38;3.47;;;1.52;;
53309;SDS011;39197;53.200;5.792;2023-04-02T16:16:13;4.25;;;2.65;;
53309;SDS011;39197;53.200;5.792;2023-04-02T16:19:03;3.67;;;0.68;;
53309;SDS011;39197;53.200;5.792;2023-04-02T16:21:48;5.72;;;1.10;;
53309;SDS011;39197;53.200;5.792;2023-04-02T16:24:20;3.63;;;0.98;;
53309;SDS011;39197;53.200;5.792;2023-04-02T16:35:11;4.60;;;1.10;;
53309;SDS011;39197;53.200;5.792;2023-04-02T16:37:51;5.13;;;1.13;;
53309;SDS011;39197;53.200;5.792;2023-04-02T16:43:23;6.30;;;2.40;;
53309;SDS011;39197;53.200;5.792;2023-04-02T16:54:41;5.20;;;1.90;;
53309;SDS011;39197;53.200;5.792;2023-04-02T17:00:23;10.23;;;2.63;;
53309;SDS011;39197;53.200;5.792;2023-04-02T17:08:42;6.68;;;1.33;;
53309;SDS011;39197;53.200;5.792;2023-04-02T17:11:38;7.57;;;1.83;;
53309;SDS011;39197;53.200;5.792;2023-04-02T17:14:15;4.82;;;1.00;;
53309;SDS011;39197;53.200;5.792;2023-04-02T17:16:56;5.97;;;1.40;;
53309;SDS011;39197;53.200;5.792;2023-04-02T17:19:26;5.78;;;1.40;;
53309;SDS011;39197;53.200;5.792;2023-04-02T17:21:55;6.85;;;2.50;;
53309;SDS011;39197;53.200;5.792;2023-04-02T17:29:42;4.40;;;1.27;;
53309;SDS011;39197;53.200;5.792;2023-04-02T17:32:14;8.05;;;1.83;;
53309;SDS011;39197;53.200;5.792;2023-04-02T17:34:44;3.15;;;1.30;;
53309;SDS011;39197;53.200;5.792;2023-04-02T17:47:29;6.05;;;0.90;;
53309;SDS011;39197;53.200;5.792;2023-04-02T17:55:47;3.28;;;1.50;;
53309;SDS011;39197;53.200;5.792;2023-04-02T17:58:22;6.50;;;1.67;;
53309;SDS011;39197;53.200;5.792;2023-04-02T18:06:42;4.63;;;1.20;;
53309;SDS011;39197;53.200;5.792;2023-04-02T18:17:26;6.70;;;2.63;;
53309;SDS011;39197;53.200;5.792;2023-04-02T18:20:02;7.05;;;2.08;;
53309;SDS011;39197;53.200;5.792;2023-04-02T18:22:33;8.43;;;4.43;;
53309;SDS011;39197;53.200;5.792;2023-04-02T18:27:29;7.47;;;1.75;;
53309;SDS011;39197;53.200;5.792;2023-04-02T18:32:54;6.05;;;1.55;;
53309;SDS011;39197;53.200;5.792;2023-04-02T18:46:10;7.50;;;3.08;;
53309;SDS011;39197;53.200;5.792;2023-04-02T18:51:27;7.35;;;2.13;;
53309;SDS011;39197;53.200;5.792;2023-04-02T18:54:06;8.98;;;2.10;;
53309;SDS011;39197;53.200;5.792;2023-04-02T18:56:37;6.90;;;1.42;;
53309;SDS011;39197;53.200;5.792;2023-04-02T19:01:54;5.10;;;1.88;;
53309;SDS011;39197;53.200;5.792;2023-04-02T19:04:27;6.20;;;1.40;;
53309;SDS011;39197;53.200;5.792;2023-04-02T19:07:01;8.73;;;2.25;;
53309;SDS011;39197;53.200;5.792;2023-04-02T19:09:35;7.53;;;2.65;;
53309;SDS011;39197;53.200;5.792;2023-04-02T19:12:15;7.40;;;2.75;;
53309;SDS011;39197;53.200;5.792;2023-04-02T19:14:45;9.35;;;4.20;;
53309;SDS011;39197;53.200;5.792;2023-04-02T19:17:35;21.48;;;3.83;;
53309;SDS011;39197;53.200;5.792;2023-04-02T19:23:02;5.22;;;1.25;;
53309;SDS011;39197;53.200;5.792;2023-04-02T19:26:04;8.52;;;1.70;;
53309;SDS011;39197;53.200;5.792;2023-04-02T19:28:34;9.57;;;2.40;;
53309;SDS011;39197;53.200;5.792;2023-04-02T19:33:44;4.97;;;1.58;;
53309;SDS011;39197;53.200;5.792;2023-04-02T19:41:53;7.03;;;1.50;;
53309;SDS011;39197;53.200;5.792;2023-04-02T19:44:24;4.57;;;1.10;;
53309;SDS011;39197;53.200;5.792;2023-04-02T19:46:49;6.00;;;1.90;;
53309;SDS011;39197;53.200;5.792;2023-04-02T19:49:16;5.65;;;2.70;;
53309;SDS011;39197;53.200;5.792;2023-04-02T19:51:52;7.50;;;2.53;;
53309;SDS011;39197;53.200;5.792;2023-04-02T19:54:19;6.03;;;1.42;;
53309;SDS011;39197;53.200;5.792;2023-04-02T19:56:44;5.85;;;1.25;;
53309;SDS011;39197;53.200;5.792;2023-04-02T19:59:10;2.85;;;1.20;;
53309;SDS011;39197;53.200;5.792;2023-04-02T20:01:36;6.70;;;1.20;;
53309;SDS011;39197;53.200;5.792;2023-04-02T20:04:02;3.53;;;0.77;;
53309;SDS011;39197;53.200;5.792;2023-04-02T20:06:29;4.43;;;1.50;;
53309;SDS011;39197;53.200;5.792;2023-04-02T20:08:55;6.63;;;2.00;;
53309;SDS011;39197;53.200;5.792;2023-04-02T20:11:25;2.83;;;1.10;;
53309;SDS011;39197;53.200;5.792;2023-04-02T20:13:51;11.32;;;4.85;;
53309;SDS011;39197;53.200;5.792;2023-04-02T20:16:17;6.53;;;2.40;;
53309;SDS011;39197;53.200;5.792;2023-04-02T20:18:44;6.90;;;2.30;;
53309;SDS011;39197;53.200;5.792;2023-04-02T20:21:10;5.57;;;1.50;;
53309;SDS011;39197;53.200;5.792;2023-04-02T20:23:35;3.17;;;0.90;;
53309;SDS011;39197;53.200;5.792;2023-04-02T20:26:01;4.45;;;1.23;;
53309;SDS011;39197;53.200;5.792;2023-04-02T20:28:29;3.00;;;0.80;;
53309;SDS011;39197;53.200;5.792;2023-04-02T20:31:09;5.35;;;1.25;;
53309;SDS011;39197;53.200;5.792;2023-04-02T20:33:40;4.57;;;1.33;;
53309;SDS011;39197;53.200;5.792;2023-04-02T20:36:07;5.53;;;1.75;;
53309;SDS011;39197;53.200;5.792;2023-04-02T20:38:35;6.85;;;1.80;;
53309;SDS011;39197;53.200;5.792;2023-04-02T20:41:02;4.25;;;1.10;;
53309;SDS011;39197;53.200;5.792;2023-04-02T20:43:28;4.28;;;1.00;;
53309;SDS011;39197;53.200;5.792;2023-04-02T20:45:58;4.03;;;0.80;;
53309;SDS011;39197;53.200;5.792;2023-04-02T20:48:34;4.70;;;1.13;;
53309;SDS011;39197;53.200;5.792;2023-04-02T20:51:04;2.03;;;1.00;;
53309;SDS011;39197;53.200;5.792;2023-04-02T20:53:33;4.78;;;0.98;;
53309;SDS011;39197;53.200;5.792;2023-04-02T20:56:07;4.93;;;1.55;;
53309;SDS011;39197;53.200;5.792;2023-04-02T20:58:34;3.28;;;0.98;;
53309;SDS011;39197;53.200;5.792;2023-04-02T21:01:05;3.55;;;0.63;;
53309;SDS011;39197;53.200;5.792;2023-04-02T21:03:31;7.22;;;2.92;;
53309;SDS011;39197;53.200;5.792;2023-04-02T21:05:56;5.97;;;2.72;;
53309;SDS011;39197;53.200;5.792;2023-04-02T21:08:22;3.85;;;0.95;;